sensor_id;sensor_type;location;lat;lon;timestamp;P1;durP1;ratioP1;P2;durP2;ratioP2
11006;SDS011;8186;57.652;11.968;2022-12-11T00:01:08;9.07;;;5.67;;
11006;SDS011;8186;57.652;11.968;2022-12-11T00:03:35;9.43;;;5.63;;
11006;SDS011;8186;57.652;11.968;2022-12-11T00:06:05;12.23;;;8.10;;
11006;SDS011;8186;57.652;11.968;2022-12-11T00:08:33;17.73;;;12.10;;
11006;SDS011;8186;57.652;11.968;2022-12-11T00:11:00;12.03;;;8.13;;
11006;SDS011;8186;57.652;11.968;2022-12-11T00:13:27;9.10;;;6.60;;
11006;SDS011;8186;57.652;11.968;2022-12-11T00:15:53;15.10;;;9.77;;
11006;SDS011;8186;57.652;11.968;2022-12-11T00:18:20;17.20;;;9.33;;
11006;SDS011;8186;57.652;11.968;2022-12-11T00:20:47;13.77;;;8.60;;
11006;SDS011;8186;57.652;11.968;2022-12-11T00:23:16;11.80;;;7.00;;
11006;SDS011;8186;57.652;11.968;2022-12-11T00:25:43;14.00;;;8.73;;
11006;SDS011;8186;57.652;11.968;2022-12-11T00:28:11;15.13;;;9.67;;
11006;SDS011;8186;57.652;11.968;2022-12-11T00:30:39;12.57;;;7.67;;
11006;SDS011;8186;57.652;11.968;2022-12-11T00:33:08;13.97;;;8.77;;
11006;SDS011;8186;57.652;11.968;2022-12-11T00:35:38;19.90;;;11.07;;
11006;SDS011;8186;57.652;11.968;2022-12-11T00:38:05;27.87;;;13.33;;
11006;SDS011;8186;57.652;11.968;2022-12-11T00:40:33;21.80;;;12.20;;
11006;SDS011;8186;57.652;11.968;2022-12-11T00:43:00;23.57;;;12.20;;
11006;SDS011;8186;57.652;11.968;2022-12-11T00:45:27;18.80;;;10.87;;
11006;SDS011;8186;57.652;11.968;2022-12-11T00:47:54;14.70;;;8.07;;
11006;SDS011;8186;57.652;11.968;2022-12-11T00:50:21;12.83;;;7.63;;
11006;SDS011;8186;57.652;11.968;2022-12-11T00:52:48;43.37;;;18.97;;
11006;SDS011;8186;57.652;11.968;2022-12-11T00:55:15;23.80;;;11.70;;
11006;SDS011;8186;57.652;11.968;2022-12-11T00:57:44;27.53;;;14.50;;
11006;SDS011;8186;57.652;11.968;2022-12-11T01:00:12;17.33;;;10.00;;
11006;SDS011;8186;57.652;11.968;2022-12-11T01:02:39;12.67;;;7.17;;
11006;SDS011;8186;57.652;11.968;2022-12-11T01:05:07;9.73;;;5.80;;
11006;SDS011;8186;57.652;11.968;2022-12-11T01:07:35;5.97;;;4.00;;
11006;SDS011;8186;57.652;11.968;2022-12-11T01:10:02;4.97;;;3.43;;
11006;SDS011;8186;57.652;11.968;2022-12-11T01:12:49;5.93;;;3.57;;
11006;SDS011;8186;57.652;11.968;2022-12-11T01:15:16;5.20;;;3.43;;
11006;SDS011;8186;57.652;11.968;2022-12-11T01:17:43;3.67;;;3.03;;
11006;SDS011;8186;57.652;11.968;2022-12-11T01:20:10;4.60;;;3.47;;
11006;SDS011;8186;57.652;11.968;2022-12-11T01:22:38;6.47;;;4.03;;
11006;SDS011;8186;57.652;11.968;2022-12-11T01:25:05;12.93;;;7.03;;
11006;SDS011;8186;57.652;11.968;2022-12-11T01:27:33;18.93;;;9.40;;
11006;SDS011;8186;57.652;11.968;2022-12-11T01:30:01;14.13;;;8.23;;
11006;SDS011;8186;57.652;11.968;2022-12-11T01:32:29;8.87;;;5.70;;
11006;SDS011;8186;57.652;11.968;2022-12-11T01:34:56;5.27;;;3.10;;
11006;SDS011;8186;57.652;11.968;2022-12-11T01:37:23;4.40;;;2.90;;
11006;SDS011;8186;57.652;11.968;2022-12-11T01:39:50;3.57;;;2.90;;
11006;SDS011;8186;57.652;11.968;2022-12-11T01:42:18;4.90;;;3.17;;
11006;SDS011;8186;57.652;11.968;2022-12-11T01:47:50;3.73;;;2.50;;
11006;SDS011;8186;57.652;11.968;2022-12-11T01:50:19;3.40;;;3.00;;
11006;SDS011;8186;57.652;11.968;2022-12-11T01:52:47;4.30;;;3.10;;
11006;SDS011;8186;57.652;11.968;2022-12-11T01:55:15;3.87;;;2.70;;
11006;SDS011;8186;57.652;11.968;2022-12-11T01:57:43;3.07;;;2.60;;
11006;SDS011;8186;57.652;11.968;2022-12-11T02:00:11;4.03;;;3.00;;
11006;SDS011;8186;57.652;11.968;2022-12-11T02:02:39;4.93;;;2.70;;
11006;SDS011;8186;57.652;11.968;2022-12-11T02:05:07;3.37;;;2.90;;
11006;SDS011;8186;57.652;11.968;2022-12-11T02:07:36;5.60;;;3.40;;
11006;SDS011;8186;57.652;11.968;2022-12-11T02:10:05;3.83;;;2.87;;
11006;SDS011;8186;57.652;11.968;2022-12-11T02:12:35;4.37;;;3.20;;
11006;SDS011;8186;57.652;11.968;2022-12-11T02:15:08;3.47;;;3.07;;
11006;SDS011;8186;57.652;11.968;2022-12-11T02:17:40;3.53;;;2.90;;
11006;SDS011;8186;57.652;11.968;2022-12-11T02:20:10;4.60;;;3.03;;
11006;SDS011;8186;57.652;11.968;2022-12-11T02:22:52;3.70;;;2.63;;
11006;SDS011;8186;57.652;11.968;2022-12-11T02:25:29;3.83;;;3.23;;
11006;SDS011;8186;57.652;11.968;2022-12-11T02:28:15;3.17;;;2.67;;
11006;SDS011;8186;57.652;11.968;2022-12-11T02:30:44;3.87;;;2.90;;
11006;SDS011;8186;57.652;11.968;2022-12-11T02:33:14;4.40;;;3.17;;
11006;SDS011;8186;57.652;11.968;2022-12-11T02:35:42;3.77;;;3.30;;
11006;SDS011;8186;57.652;11.968;2022-12-11T02:38:11;3.83;;;3.00;;
11006;SDS011;8186;57.652;11.968;2022-12-11T02:40:40;4.03;;;2.97;;
11006;SDS011;8186;57.652;11.968;2022-12-11T02:43:09;3.57;;;2.73;;
11006;SDS011;8186;57.652;11.968;2022-12-11T02:45:38;4.37;;;3.30;;
11006;SDS011;8186;57.652;11.968;2022-12-11T02:48:06;4.03;;;2.80;;
11006;SDS011;8186;57.652;11.968;2022-12-11T02:50:35;4.13;;;2.90;;
11006;SDS011;8186;57.652;11.968;2022-12-11T02:53:04;3.50;;;2.83;;
11006;SDS011;8186;57.652;11.968;2022-12-11T02:55:32;3.60;;;2.63;;
11006;SDS011;8186;57.652;11.968;2022-12-11T02:58:03;3.33;;;2.97;;
11006;SDS011;8186;57.652;11.968;2022-12-11T03:00:31;3.40;;;2.87;;
11006;SDS011;8186;57.652;11.968;2022-12-11T03:03:00;2.87;;;2.53;;
11006;SDS011;8186;57.652;11.968;2022-12-11T03:05:27;5.47;;;2.70;;
11006;SDS011;8186;57.652;11.968;2022-12-11T03:07:55;4.03;;;2.90;;
11006;SDS011;8186;57.652;11.968;2022-12-11T03:10:22;3.23;;;2.67;;
11006;SDS011;8186;57.652;11.968;2022-12-11T03:12:49;4.20;;;2.63;;
11006;SDS011;8186;57.652;11.968;2022-12-11T03:15:18;5.13;;;2.93;;
11006;SDS011;8186;57.652;11.968;2022-12-11T03:17:50;4.77;;;3.00;;
11006;SDS011;8186;57.652;11.968;2022-12-11T03:20:25;3.40;;;2.60;;
11006;SDS011;8186;57.652;11.968;2022-12-11T03:23:01;5.77;;;3.20;;
11006;SDS011;8186;57.652;11.968;2022-12-11T03:25:31;3.63;;;2.80;;
11006;SDS011;8186;57.652;11.968;2022-12-11T03:28:02;4.37;;;2.87;;
11006;SDS011;8186;57.652;11.968;2022-12-11T03:30:33;4.40;;;2.80;;
11006;SDS011;8186;57.652;11.968;2022-12-11T03:33:01;3.43;;;2.67;;
11006;SDS011;8186;57.652;11.968;2022-12-11T03:35:32;3.57;;;2.53;;
11006;SDS011;8186;57.652;11.968;2022-12-11T03:38:00;5.00;;;3.00;;
11006;SDS011;8186;57.652;11.968;2022-12-11T03:40:29;5.27;;;2.90;;
11006;SDS011;8186;57.652;11.968;2022-12-11T03:42:58;3.03;;;2.50;;
11006;SDS011;8186;57.652;11.968;2022-12-11T03:45:25;5.10;;;3.33;;
11006;SDS011;8186;57.652;11.968;2022-12-11T03:47:54;4.23;;;3.10;;
11006;SDS011;8186;57.652;11.968;2022-12-11T03:50:22;3.63;;;2.90;;
11006;SDS011;8186;57.652;11.968;2022-12-11T03:52:53;4.20;;;3.00;;
11006;SDS011;8186;57.652;11.968;2022-12-11T03:55:21;4.53;;;3.00;;
11006;SDS011;8186;57.652;11.968;2022-12-11T03:57:48;3.00;;;2.50;;
11006;SDS011;8186;57.652;11.968;2022-12-11T04:00:16;3.73;;;2.93;;
11006;SDS011;8186;57.652;11.968;2022-12-11T04:02:45;3.23;;;2.67;;
11006;SDS011;8186;57.652;11.968;2022-12-11T04:05:32;4.60;;;3.00;;
11006;SDS011;8186;57.652;11.968;2022-12-11T04:08:01;3.43;;;2.77;;
11006;SDS011;8186;57.652;11.968;2022-12-11T04:10:28;2.90;;;2.50;;
11006;SDS011;8186;57.652;11.968;2022-12-11T04:12:54;3.23;;;2.43;;
11006;SDS011;8186;57.652;11.968;2022-12-11T04:15:21;3.17;;;2.53;;
11006;SDS011;8186;57.652;11.968;2022-12-11T04:17:47;3.63;;;3.10;;
11006;SDS011;8186;57.652;11.968;2022-12-11T04:20:32;3.03;;;2.43;;
11006;SDS011;8186;57.652;11.968;2022-12-11T04:23:17;3.60;;;2.60;;
11006;SDS011;8186;57.652;11.968;2022-12-11T04:26:03;4.27;;;2.57;;
11006;SDS011;8186;57.652;11.968;2022-12-11T04:28:30;4.20;;;2.67;;
11006;SDS011;8186;57.652;11.968;2022-12-11T04:30:58;3.37;;;2.70;;
11006;SDS011;8186;57.652;11.968;2022-12-11T04:33:24;3.07;;;2.33;;
11006;SDS011;8186;57.652;11.968;2022-12-11T04:35:51;3.30;;;2.40;;
11006;SDS011;8186;57.652;11.968;2022-12-11T04:38:20;3.23;;;2.33;;
11006;SDS011;8186;57.652;11.968;2022-12-11T04:40:47;3.30;;;2.83;;
11006;SDS011;8186;57.652;11.968;2022-12-11T04:43:14;4.53;;;2.77;;
11006;SDS011;8186;57.652;11.968;2022-12-11T04:45:41;3.37;;;2.47;;
11006;SDS011;8186;57.652;11.968;2022-12-11T04:48:08;3.77;;;2.60;;
11006;SDS011;8186;57.652;11.968;2022-12-11T04:50:35;3.27;;;2.37;;
11006;SDS011;8186;57.652;11.968;2022-12-11T04:53:02;2.70;;;2.23;;
11006;SDS011;8186;57.652;11.968;2022-12-11T04:55:30;3.00;;;2.50;;
11006;SDS011;8186;57.652;11.968;2022-12-11T04:57:57;4.07;;;2.70;;
11006;SDS011;8186;57.652;11.968;2022-12-11T05:00:24;3.80;;;2.47;;
11006;SDS011;8186;57.652;11.968;2022-12-11T05:02:51;3.13;;;2.53;;
11006;SDS011;8186;57.652;11.968;2022-12-11T05:05:18;2.67;;;2.27;;
11006;SDS011;8186;57.652;11.968;2022-12-11T05:07:45;3.23;;;2.30;;
11006;SDS011;8186;57.652;11.968;2022-12-11T05:10:12;3.33;;;2.60;;
11006;SDS011;8186;57.652;11.968;2022-12-11T05:12:41;2.83;;;2.37;;
11006;SDS011;8186;57.652;11.968;2022-12-11T05:15:08;3.30;;;2.40;;
11006;SDS011;8186;57.652;11.968;2022-12-11T05:17:35;3.70;;;3.00;;
11006;SDS011;8186;57.652;11.968;2022-12-11T05:20:02;3.53;;;2.60;;
11006;SDS011;8186;57.652;11.968;2022-12-11T05:22:30;4.23;;;2.83;;
11006;SDS011;8186;57.652;11.968;2022-12-11T05:24:57;2.90;;;2.40;;
11006;SDS011;8186;57.652;11.968;2022-12-11T05:27:24;2.97;;;2.30;;
11006;SDS011;8186;57.652;11.968;2022-12-11T05:29:52;3.07;;;2.50;;
11006;SDS011;8186;57.652;11.968;2022-12-11T05:32:19;3.37;;;2.27;;
11006;SDS011;8186;57.652;11.968;2022-12-11T05:34:46;2.77;;;2.47;;
11006;SDS011;8186;57.652;11.968;2022-12-11T05:37:13;3.57;;;2.43;;
11006;SDS011;8186;57.652;11.968;2022-12-11T05:39:40;2.90;;;2.40;;
11006;SDS011;8186;57.652;11.968;2022-12-11T05:42:06;3.53;;;2.70;;
11006;SDS011;8186;57.652;11.968;2022-12-11T05:44:33;3.00;;;2.47;;
11006;SDS011;8186;57.652;11.968;2022-12-11T05:47:02;3.00;;;2.60;;
11006;SDS011;8186;57.652;11.968;2022-12-11T05:49:29;3.70;;;2.70;;
11006;SDS011;8186;57.652;11.968;2022-12-11T05:51:56;3.20;;;2.50;;
11006;SDS011;8186;57.652;11.968;2022-12-11T05:54:23;3.00;;;2.60;;
11006;SDS011;8186;57.652;11.968;2022-12-11T05:56:49;3.23;;;2.47;;
11006;SDS011;8186;57.652;11.968;2022-12-11T05:59:16;2.73;;;2.43;;
11006;SDS011;8186;57.652;11.968;2022-12-11T06:01:44;4.00;;;2.87;;
11006;SDS011;8186;57.652;11.968;2022-12-11T06:04:12;3.23;;;2.63;;
11006;SDS011;8186;57.652;11.968;2022-12-11T06:06:39;3.27;;;2.53;;
11006;SDS011;8186;57.652;11.968;2022-12-11T06:09:11;3.03;;;2.33;;
11006;SDS011;8186;57.652;11.968;2022-12-11T06:11:39;3.40;;;2.70;;
11006;SDS011;8186;57.652;11.968;2022-12-11T06:14:06;4.47;;;2.70;;
11006;SDS011;8186;57.652;11.968;2022-12-11T06:16:35;3.07;;;2.73;;
11006;SDS011;8186;57.652;11.968;2022-12-11T06:19:02;5.17;;;3.20;;
11006;SDS011;8186;57.652;11.968;2022-12-11T06:21:31;4.33;;;2.93;;
11006;SDS011;8186;57.652;11.968;2022-12-11T06:23:59;3.67;;;2.90;;
11006;SDS011;8186;57.652;11.968;2022-12-11T06:26:28;3.40;;;2.63;;
11006;SDS011;8186;57.652;11.968;2022-12-11T06:28:56;4.17;;;2.80;;
11006;SDS011;8186;57.652;11.968;2022-12-11T06:31:23;2.73;;;2.40;;
11006;SDS011;8186;57.652;11.968;2022-12-11T06:33:50;4.07;;;2.80;;
11006;SDS011;8186;57.652;11.968;2022-12-11T06:36:18;3.67;;;2.80;;
11006;SDS011;8186;57.652;11.968;2022-12-11T06:38:48;4.60;;;2.90;;
11006;SDS011;8186;57.652;11.968;2022-12-11T06:41:15;3.20;;;2.60;;
11006;SDS011;8186;57.652;11.968;2022-12-11T06:43:42;3.10;;;2.60;;
11006;SDS011;8186;57.652;11.968;2022-12-11T06:46:10;3.80;;;2.43;;
11006;SDS011;8186;57.652;11.968;2022-12-11T06:48:38;3.13;;;2.70;;
11006;SDS011;8186;57.652;11.968;2022-12-11T06:51:06;3.03;;;2.60;;
11006;SDS011;8186;57.652;11.968;2022-12-11T06:53:35;3.73;;;2.53;;
11006;SDS011;8186;57.652;11.968;2022-12-11T06:56:04;2.80;;;2.47;;
11006;SDS011;8186;57.652;11.968;2022-12-11T06:58:32;2.73;;;2.13;;
11006;SDS011;8186;57.652;11.968;2022-12-11T07:01:00;3.40;;;2.50;;
11006;SDS011;8186;57.652;11.968;2022-12-11T07:03:27;2.97;;;2.43;;
11006;SDS011;8186;57.652;11.968;2022-12-11T07:05:58;3.87;;;2.30;;
11006;SDS011;8186;57.652;11.968;2022-12-11T07:08:26;4.17;;;2.37;;
11006;SDS011;8186;57.652;11.968;2022-12-11T07:10:53;2.63;;;2.40;;
11006;SDS011;8186;57.652;11.968;2022-12-11T07:13:21;3.17;;;2.37;;
11006;SDS011;8186;57.652;11.968;2022-12-11T07:15:48;3.03;;;2.50;;
11006;SDS011;8186;57.652;11.968;2022-12-11T07:18:15;3.10;;;2.70;;
11006;SDS011;8186;57.652;11.968;2022-12-11T07:20:42;3.00;;;2.70;;
11006;SDS011;8186;57.652;11.968;2022-12-11T07:23:09;2.83;;;2.57;;
11006;SDS011;8186;57.652;11.968;2022-12-11T07:25:36;5.13;;;3.23;;
11006;SDS011;8186;57.652;11.968;2022-12-11T07:28:03;3.33;;;2.77;;
11006;SDS011;8186;57.652;11.968;2022-12-11T07:30:31;3.37;;;2.80;;
11006;SDS011;8186;57.652;11.968;2022-12-11T07:32:58;4.27;;;2.90;;
11006;SDS011;8186;57.652;11.968;2022-12-11T07:35:25;4.03;;;2.90;;
11006;SDS011;8186;57.652;11.968;2022-12-11T07:37:52;3.90;;;2.80;;
11006;SDS011;8186;57.652;11.968;2022-12-11T07:40:19;3.50;;;2.90;;
11006;SDS011;8186;57.652;11.968;2022-12-11T07:42:47;3.90;;;3.27;;
11006;SDS011;8186;57.652;11.968;2022-12-11T07:45:13;3.90;;;3.00;;
11006;SDS011;8186;57.652;11.968;2022-12-11T07:47:42;3.03;;;2.73;;
11006;SDS011;8186;57.652;11.968;2022-12-11T07:50:09;4.03;;;3.17;;
11006;SDS011;8186;57.652;11.968;2022-12-11T07:52:36;4.20;;;2.60;;
11006;SDS011;8186;57.652;11.968;2022-12-11T07:55:03;3.47;;;2.67;;
11006;SDS011;8186;57.652;11.968;2022-12-11T07:57:31;3.80;;;2.87;;
11006;SDS011;8186;57.652;11.968;2022-12-11T07:59:57;4.50;;;3.33;;
11006;SDS011;8186;57.652;11.968;2022-12-11T08:02:24;4.17;;;3.20;;
11006;SDS011;8186;57.652;11.968;2022-12-11T08:04:53;3.07;;;2.73;;
11006;SDS011;8186;57.652;11.968;2022-12-11T08:07:20;2.80;;;2.50;;
11006;SDS011;8186;57.652;11.968;2022-12-11T08:09:47;4.10;;;2.70;;
11006;SDS011;8186;57.652;11.968;2022-12-11T08:12:13;2.70;;;2.50;;
11006;SDS011;8186;57.652;11.968;2022-12-11T08:14:40;5.13;;;3.00;;
11006;SDS011;8186;57.652;11.968;2022-12-11T08:17:07;3.53;;;2.63;;
11006;SDS011;8186;57.652;11.968;2022-12-11T08:19:34;3.93;;;2.47;;
11006;SDS011;8186;57.652;11.968;2022-12-11T08:22:03;5.13;;;2.83;;
11006;SDS011;8186;57.652;11.968;2022-12-11T08:24:30;3.90;;;2.83;;
11006;SDS011;8186;57.652;11.968;2022-12-11T08:26:57;3.80;;;2.47;;
11006;SDS011;8186;57.652;11.968;2022-12-11T08:29:24;3.97;;;2.87;;
11006;SDS011;8186;57.652;11.968;2022-12-11T08:31:51;4.20;;;2.93;;
11006;SDS011;8186;57.652;11.968;2022-12-11T08:34:18;3.40;;;2.70;;
11006;SDS011;8186;57.652;11.968;2022-12-11T08:36:45;3.90;;;3.00;;
11006;SDS011;8186;57.652;11.968;2022-12-11T08:39:13;4.27;;;2.90;;
11006;SDS011;8186;57.652;11.968;2022-12-11T08:41:40;4.03;;;2.70;;
11006;SDS011;8186;57.652;11.968;2022-12-11T08:44:09;4.13;;;2.67;;
11006;SDS011;8186;57.652;11.968;2022-12-11T08:46:37;4.03;;;2.90;;
11006;SDS011;8186;57.652;11.968;2022-12-11T08:49:05;2.97;;;2.33;;
11006;SDS011;8186;57.652;11.968;2022-12-11T08:51:32;3.00;;;2.50;;
11006;SDS011;8186;57.652;11.968;2022-12-11T08:53:59;4.07;;;2.90;;
11006;SDS011;8186;57.652;11.968;2022-12-11T08:56:28;4.13;;;2.90;;
11006;SDS011;8186;57.652;11.968;2022-12-11T08:58:57;6.00;;;3.43;;
11006;SDS011;8186;57.652;11.968;2022-12-11T09:01:25;3.57;;;3.10;;
11006;SDS011;8186;57.652;11.968;2022-12-11T09:03:53;4.60;;;3.23;;
11006;SDS011;8186;57.652;11.968;2022-12-11T09:06:21;3.73;;;3.30;;
11006;SDS011;8186;57.652;11.968;2022-12-11T09:08:50;5.17;;;2.90;;
11006;SDS011;8186;57.652;11.968;2022-12-11T09:11:18;4.00;;;3.10;;
11006;SDS011;8186;57.652;11.968;2022-12-11T09:13:47;4.27;;;3.33;;
11006;SDS011;8186;57.652;11.968;2022-12-11T09:16:15;3.83;;;2.60;;
11006;SDS011;8186;57.652;11.968;2022-12-11T09:18:44;3.90;;;2.83;;
11006;SDS011;8186;57.652;11.968;2022-12-11T09:21:12;4.63;;;2.83;;
11006;SDS011;8186;57.652;11.968;2022-12-11T09:23:41;3.87;;;3.10;;
11006;SDS011;8186;57.652;11.968;2022-12-11T09:26:09;4.53;;;3.10;;
11006;SDS011;8186;57.652;11.968;2022-12-11T09:28:41;4.10;;;2.37;;
11006;SDS011;8186;57.652;11.968;2022-12-11T09:31:10;2.67;;;2.20;;
11006;SDS011;8186;57.652;11.968;2022-12-11T09:33:38;2.73;;;2.23;;
11006;SDS011;8186;57.652;11.968;2022-12-11T09:36:05;3.63;;;2.50;;
11006;SDS011;8186;57.652;11.968;2022-12-11T09:38:33;2.87;;;2.23;;
11006;SDS011;8186;57.652;11.968;2022-12-11T09:41:01;2.63;;;2.13;;
11006;SDS011;8186;57.652;11.968;2022-12-11T09:43:31;3.30;;;2.30;;
11006;SDS011;8186;57.652;11.968;2022-12-11T09:46:03;2.97;;;2.30;;
11006;SDS011;8186;57.652;11.968;2022-12-11T09:48:33;2.13;;;1.93;;
11006;SDS011;8186;57.652;11.968;2022-12-11T09:51:02;2.60;;;2.13;;
11006;SDS011;8186;57.652;11.968;2022-12-11T09:53:34;3.67;;;2.70;;
11006;SDS011;8186;57.652;11.968;2022-12-11T09:56:03;5.00;;;2.40;;
11006;SDS011;8186;57.652;11.968;2022-12-11T09:58:37;3.17;;;2.60;;
11006;SDS011;8186;57.652;11.968;2022-12-11T10:01:07;3.07;;;2.57;;
11006;SDS011;8186;57.652;11.968;2022-12-11T10:06:34;2.93;;;2.50;;
11006;SDS011;8186;57.652;11.968;2022-12-11T10:09:08;3.33;;;2.37;;
11006;SDS011;8186;57.652;11.968;2022-12-11T10:11:53;3.53;;;2.83;;
11006;SDS011;8186;57.652;11.968;2022-12-11T10:14:30;3.17;;;2.60;;
11006;SDS011;8186;57.652;11.968;2022-12-11T10:17:03;4.57;;;2.57;;
11006;SDS011;8186;57.652;11.968;2022-12-11T10:19:35;2.87;;;2.53;;
11006;SDS011;8186;57.652;11.968;2022-12-11T10:22:02;3.47;;;2.70;;
11006;SDS011;8186;57.652;11.968;2022-12-11T10:24:32;3.53;;;3.10;;
11006;SDS011;8186;57.652;11.968;2022-12-11T10:27:09;4.37;;;3.40;;
11006;SDS011;8186;57.652;11.968;2022-12-11T10:29:39;2.97;;;2.60;;
11006;SDS011;8186;57.652;11.968;2022-12-11T10:32:07;3.33;;;3.00;;
11006;SDS011;8186;57.652;11.968;2022-12-11T10:34:43;3.57;;;2.73;;
11006;SDS011;8186;57.652;11.968;2022-12-11T10:37:12;4.07;;;2.90;;
11006;SDS011;8186;57.652;11.968;2022-12-11T10:39:40;5.07;;;2.93;;
11006;SDS011;8186;57.652;11.968;2022-12-11T10:42:11;4.20;;;2.93;;
11006;SDS011;8186;57.652;11.968;2022-12-11T10:44:53;3.77;;;2.80;;
11006;SDS011;8186;57.652;11.968;2022-12-11T10:47:21;3.33;;;2.63;;
11006;SDS011;8186;57.652;11.968;2022-12-11T10:49:52;4.07;;;3.00;;
11006;SDS011;8186;57.652;11.968;2022-12-11T10:52:23;3.17;;;2.63;;
11006;SDS011;8186;57.652;11.968;2022-12-11T10:54:54;2.90;;;2.60;;
11006;SDS011;8186;57.652;11.968;2022-12-11T10:57:25;3.17;;;2.40;;
11006;SDS011;8186;57.652;11.968;2022-12-11T10:59:54;4.30;;;2.90;;
11006;SDS011;8186;57.652;11.968;2022-12-11T11:02:22;2.90;;;2.50;;
11006;SDS011;8186;57.652;11.968;2022-12-11T11:04:52;3.50;;;2.47;;
11006;SDS011;8186;57.652;11.968;2022-12-11T11:07:21;3.10;;;2.80;;
11006;SDS011;8186;57.652;11.968;2022-12-11T11:09:49;3.60;;;2.67;;
11006;SDS011;8186;57.652;11.968;2022-12-11T11:12:19;3.93;;;3.13;;
11006;SDS011;8186;57.652;11.968;2022-12-11T11:14:57;4.03;;;3.10;;
11006;SDS011;8186;57.652;11.968;2022-12-11T11:17:25;5.43;;;3.10;;
11006;SDS011;8186;57.652;11.968;2022-12-11T11:19:54;5.37;;;3.17;;
11006;SDS011;8186;57.652;11.968;2022-12-11T11:22:21;4.53;;;3.07;;
11006;SDS011;8186;57.652;11.968;2022-12-11T11:24:51;4.23;;;2.87;;
11006;SDS011;8186;57.652;11.968;2022-12-11T11:27:23;3.10;;;2.50;;
11006;SDS011;8186;57.652;11.968;2022-12-11T11:29:54;3.43;;;2.70;;
11006;SDS011;8186;57.652;11.968;2022-12-11T11:32:23;3.50;;;2.97;;
11006;SDS011;8186;57.652;11.968;2022-12-11T11:35:05;3.30;;;2.77;;
11006;SDS011;8186;57.652;11.968;2022-12-11T11:37:42;5.93;;;3.60;;
11006;SDS011;8186;57.652;11.968;2022-12-11T11:40:12;3.53;;;2.83;;
11006;SDS011;8186;57.652;11.968;2022-12-11T11:42:42;3.10;;;2.67;;
11006;SDS011;8186;57.652;11.968;2022-12-11T11:45:13;3.03;;;2.73;;
11006;SDS011;8186;57.652;11.968;2022-12-11T11:47:47;3.73;;;3.00;;
11006;SDS011;8186;57.652;11.968;2022-12-11T11:50:21;3.70;;;2.53;;
11006;SDS011;8186;57.652;11.968;2022-12-11T11:52:52;3.47;;;2.80;;
11006;SDS011;8186;57.652;11.968;2022-12-11T11:55:26;4.23;;;3.30;;
11006;SDS011;8186;57.652;11.968;2022-12-11T11:58:04;3.23;;;2.83;;
11006;SDS011;8186;57.652;11.968;2022-12-11T12:00:33;3.60;;;2.80;;
11006;SDS011;8186;57.652;11.968;2022-12-11T12:03:00;3.87;;;2.63;;
11006;SDS011;8186;57.652;11.968;2022-12-11T12:05:37;3.10;;;2.80;;
11006;SDS011;8186;57.652;11.968;2022-12-11T12:08:10;3.77;;;3.03;;
11006;SDS011;8186;57.652;11.968;2022-12-11T12:10:42;5.50;;;3.27;;
11006;SDS011;8186;57.652;11.968;2022-12-11T12:13:13;3.90;;;3.03;;
11006;SDS011;8186;57.652;11.968;2022-12-11T12:15:47;4.33;;;3.60;;
11006;SDS011;8186;57.652;11.968;2022-12-11T12:18:19;4.50;;;3.30;;
11006;SDS011;8186;57.652;11.968;2022-12-11T12:20:57;3.93;;;3.27;;
11006;SDS011;8186;57.652;11.968;2022-12-11T12:23:32;5.17;;;3.43;;
11006;SDS011;8186;57.652;11.968;2022-12-11T12:26:10;3.20;;;2.90;;
11006;SDS011;8186;57.652;11.968;2022-12-11T12:28:43;3.20;;;2.70;;
11006;SDS011;8186;57.652;11.968;2022-12-11T12:31:20;3.80;;;3.40;;
11006;SDS011;8186;57.652;11.968;2022-12-11T12:33:57;4.40;;;3.10;;
11006;SDS011;8186;57.652;11.968;2022-12-11T12:36:32;4.00;;;3.10;;
11006;SDS011;8186;57.652;11.968;2022-12-11T12:39:06;3.97;;;2.90;;
11006;SDS011;8186;57.652;11.968;2022-12-11T12:41:42;4.07;;;3.50;;
11006;SDS011;8186;57.652;11.968;2022-12-11T12:44:16;4.47;;;3.20;;
11006;SDS011;8186;57.652;11.968;2022-12-11T12:46:55;3.73;;;3.33;;
11006;SDS011;8186;57.652;11.968;2022-12-11T12:49:35;3.87;;;2.90;;
11006;SDS011;8186;57.652;11.968;2022-12-11T12:52:06;3.17;;;2.87;;
11006;SDS011;8186;57.652;11.968;2022-12-11T12:54:39;3.77;;;3.33;;
11006;SDS011;8186;57.652;11.968;2022-12-11T12:57:06;4.63;;;3.20;;
11006;SDS011;8186;57.652;11.968;2022-12-11T12:59:33;3.70;;;3.20;;
11006;SDS011;8186;57.652;11.968;2022-12-11T13:02:00;4.90;;;3.33;;
11006;SDS011;8186;57.652;11.968;2022-12-11T13:04:36;3.87;;;3.17;;
11006;SDS011;8186;57.652;11.968;2022-12-11T13:07:19;4.03;;;3.40;;
11006;SDS011;8186;57.652;11.968;2022-12-11T13:09:55;3.77;;;3.33;;
11006;SDS011;8186;57.652;11.968;2022-12-11T13:12:30;4.30;;;3.30;;
11006;SDS011;8186;57.652;11.968;2022-12-11T13:14:58;4.07;;;3.27;;
11006;SDS011;8186;57.652;11.968;2022-12-11T13:17:33;4.13;;;3.20;;
11006;SDS011;8186;57.652;11.968;2022-12-11T13:20:08;4.00;;;2.90;;
11006;SDS011;8186;57.652;11.968;2022-12-11T13:22:52;3.97;;;3.53;;
11006;SDS011;8186;57.652;11.968;2022-12-11T13:25:22;3.33;;;3.03;;
11006;SDS011;8186;57.652;11.968;2022-12-11T13:27:52;4.03;;;3.33;;
11006;SDS011;8186;57.652;11.968;2022-12-11T13:30:20;3.90;;;2.80;;
11006;SDS011;8186;57.652;11.968;2022-12-11T13:32:51;3.50;;;3.10;;
11006;SDS011;8186;57.652;11.968;2022-12-11T13:35:23;3.83;;;2.87;;
11006;SDS011;8186;57.652;11.968;2022-12-11T13:37:52;3.50;;;2.80;;
11006;SDS011;8186;57.652;11.968;2022-12-11T13:40:20;3.90;;;2.67;;
11006;SDS011;8186;57.652;11.968;2022-12-11T13:42:49;4.63;;;2.43;;
11006;SDS011;8186;57.652;11.968;2022-12-11T13:45:18;2.60;;;2.40;;
11006;SDS011;8186;57.652;11.968;2022-12-11T13:47:48;3.30;;;2.40;;
11006;SDS011;8186;57.652;11.968;2022-12-11T13:50:17;6.33;;;3.63;;
11006;SDS011;8186;57.652;11.968;2022-12-11T13:52:53;4.07;;;2.73;;
11006;SDS011;8186;57.652;11.968;2022-12-11T13:55:21;4.60;;;3.07;;
11006;SDS011;8186;57.652;11.968;2022-12-11T13:57:49;9.20;;;5.53;;
11006;SDS011;8186;57.652;11.968;2022-12-11T14:00:18;7.97;;;4.90;;
11006;SDS011;8186;57.652;11.968;2022-12-11T14:02:46;18.93;;;11.20;;
11006;SDS011;8186;57.652;11.968;2022-12-11T14:05:14;19.60;;;11.73;;
11006;SDS011;8186;57.652;11.968;2022-12-11T14:07:43;23.43;;;13.80;;
11006;SDS011;8186;57.652;11.968;2022-12-11T14:10:15;8.70;;;6.33;;
11006;SDS011;8186;57.652;11.968;2022-12-11T14:12:44;11.47;;;6.90;;
11006;SDS011;8186;57.652;11.968;2022-12-11T14:15:16;13.87;;;8.10;;
11006;SDS011;8186;57.652;11.968;2022-12-11T14:17:43;6.83;;;5.10;;
11006;SDS011;8186;57.652;11.968;2022-12-11T14:20:14;4.60;;;4.07;;
11006;SDS011;8186;57.652;11.968;2022-12-11T14:22:42;4.57;;;3.80;;
11006;SDS011;8186;57.652;11.968;2022-12-11T14:25:17;5.70;;;3.73;;
11006;SDS011;8186;57.652;11.968;2022-12-11T14:27:47;5.20;;;3.57;;
11006;SDS011;8186;57.652;11.968;2022-12-11T14:30:19;3.90;;;3.10;;
11006;SDS011;8186;57.652;11.968;2022-12-11T14:32:47;4.53;;;3.70;;
11006;SDS011;8186;57.652;11.968;2022-12-11T14:35:22;4.17;;;2.93;;
11006;SDS011;8186;57.652;11.968;2022-12-11T14:37:50;5.30;;;3.43;;
11006;SDS011;8186;57.652;11.968;2022-12-11T14:40:21;4.83;;;3.60;;
11006;SDS011;8186;57.652;11.968;2022-12-11T14:42:51;3.50;;;2.70;;
11006;SDS011;8186;57.652;11.968;2022-12-11T14:45:22;4.67;;;3.27;;
11006;SDS011;8186;57.652;11.968;2022-12-11T14:47:54;4.10;;;3.13;;
11006;SDS011;8186;57.652;11.968;2022-12-11T14:50:24;4.13;;;3.20;;
11006;SDS011;8186;57.652;11.968;2022-12-11T14:52:55;4.97;;;3.10;;
11006;SDS011;8186;57.652;11.968;2022-12-11T14:55:26;4.00;;;3.17;;
11006;SDS011;8186;57.652;11.968;2022-12-11T14:57:55;4.87;;;3.37;;
11006;SDS011;8186;57.652;11.968;2022-12-11T15:00:24;3.50;;;2.70;;
11006;SDS011;8186;57.652;11.968;2022-12-11T15:02:56;4.67;;;3.53;;
11006;SDS011;8186;57.652;11.968;2022-12-11T15:05:24;3.90;;;3.20;;